FW3681 Weather Reports


Display with metric or nautical units.
time (UTC)temp
F
wind
direction
speed
MPH
gust
MPH
rain 1hr
in
rain 24hr
in
rain mn
in
humidity
%
barometer
mb
20200410095611 61 26 0.0 0.0 0.02 0.07 0.07 94 1012.3
20200410095123 61 26 0.0 0.0 0.02 0.07 0.07 94 1012.1
20200410094614 61 26 0.0 1.0 0.02 0.07 0.07 94 1011.9
20200410094120 61 26 0.0 1.0 0.02 0.07 0.07 93 1012.0
20200410093627 61 25 0.0 0.0 0.03 0.07 0.07 94 1012.0
20200410093113 60 25 0.0 0.0 0.03 0.07 0.07 93 1012.1
20200410092626 61 25 0.0 0.0 0.04 0.07 0.07 93 1012.3
20200410092112 61 25 0.0 0.0 0.03 0.06 0.06 93 1012.3
20200410091130 61 25 0.0 0.0 0.04 0.06 0.06 93 1012.6
20200410090617 61 25 0.0 1.0 0.05 0.06 0.06 92 1012.5
20200410090136 61 25 0.0 2.0 0.05 0.05 0.05 93 1012.6
20200410085610 61 25 1.0 2.0 0.05 0.05 0.05 92 1012.7
20200410085123 61 12 1.0 2.0 0.05 0.05 0.05 92 1013.0
20200410084626 61 12 0.0 2.0 0.05 0.05 0.05 91 1012.8
20200410084128 61 19 0.0 2.0 0.05 0.05 0.05 91 1012.6
20200410083615 61 19 1.0 2.0 0.04 0.04 0.04 90 1012.5
20200410083128 61 86 0.0 2.0 0.04 0.04 0.04 90 1012.7
20200410082613 62 60 0.0 2.0 0.03 0.03 0.03 90 1012.8
20200410082117 62 336 1.0 3.0 0.03 0.03 0.03 89 1012.8
20200410081622 62 321 0.0 2.0 0.02 0.02 0.02 87 1012.7
20200410081131 63 321 1.0 3.0 0.01 0.01 0.01 86 1012.4
20200410080616 63 300 1.0 4.0 0.00 0.00 0.00 83 1012.6
20200410080444 64 349 1.0 5.0 0.00 0.00 0.00 81 1012.2
20200410075629 64 308 2.0 5.0 0.00 0.00 0.00 79 1012.1
20200410075112 64 329 1.0 4.0 0.00 0.00 0.00 77 1011.3
20200410074619 64 20 1.0 4.0 0.00 0.00 0.00 76 1011.1
20200410074121 65 360 2.0 5.0 0.00 0.00 0.00 76 1011.1
20200410073634 65 342 2.0 5.0 0.00 0.00 0.00 74 1011.1
20200410073114 65 335 2.0 4.0 0.00 0.00 0.00 73 1011.4
20200410072619 66 335 2.0 5.0 0.00 0.00 0.00 72 1011.6
20200410072121 67 324 2.0 6.0 0.00 0.00 0.00 70 1011.5
20200410071633 67 327 2.0 8.0 0.00 0.00 0.00 68 1011.7
20200410071118 68 319 3.0 12.0 0.00 0.00 0.00 65 1011.7
20200410070623 69 295 4.0 14.0 0.00 0.00 0.00 62 1011.7
20200410070145 70 319 4.0 14.0 0.00 0.00 0.00 60 1011.8
20200410065617 71 298 3.0 11.0 0.00 0.00 0.00 59 1012.0
20200410065121 72 282 3.0 11.0 0.00 0.00 0.00 58 1012.6
20200410064626 72 315 2.0 6.0 0.00 0.00 0.00 57 1011.4
20200410064120 72 333 1.0 4.0 0.00 0.00 0.00 57 1010.8
20200410063624 72 5 2.0 8.0 0.00 0.00 0.00 57 1010.7
20200410063114 72 5 3.0 8.0 0.00 0.00 0.00 57 1010.6
20200410062620 72 355 1.0 2.0 0.00 0.00 0.00 59 1010.8
20200410062133 72 336 0.0 3.0 0.00 0.00 0.00 59 1010.6
20200410061620 72 327 1.0 3.0 0.00 0.00 0.00 60 1010.7
20200410061125 73 334 0.0 3.0 0.00 0.00 0.00 60 1010.2
20200410060611 73 337 0.0 4.0 0.00 0.00 0.00 60 1010.2
20200410060134 73 327 1.0 4.0 0.00 0.00 0.00 60 1010.2
20200410055629 73 21 0.0 4.0 0.00 0.00 0.00 61 1010.1
20200410055114 73 350 1.0 5.0 0.00 0.00 0.00 60 1010.1
20200410054621 73 11 2.0 5.0 0.00 0.00 0.00 60 1010.2
20200410054133 73 355 2.0 5.0 0.00 0.00 0.00 61 1010.1
20200410053618 73 295 2.0 8.0 0.00 0.00 0.00 61 1010.0
20200410053125 73 340 2.0 8.0 0.00 0.00 0.00 62 1010.2
20200410052610 73 344 2.0 4.0 0.00 0.00 0.00 63 1010.2
20200410052115 73 34 1.0 4.0 0.00 0.00 0.00 65 1010.3
20200410051626 73 338 1.0 3.0 0.00 0.00 0.00 68 1010.3
20200410051127 74 5 1.0 2.0 0.00 0.00 0.00 69 1010.3
20200410050614 74 5 0.0 2.0 0.00 0.00 0.00 69 1010.2
20200410050128 74 5 0.0 3.0 0.00 0.00 0.00 69 1010.2
20200410045621 74 333 0.0 3.0 0.00 0.00 0.00 69 1010.2
20200410045125 74 355 1.0 3.0 0.00 0.00 0.00 68 1010.2
20200410044611 74 360 1.0 3.0 0.00 0.00 0.00 69 1010.2
20200410044124 74 5 2.0 3.0 0.00 0.00 0.00 69 1010.3
20200410043628 74 25 1.0 2.0 0.00 0.00 0.00 71 1010.1
20200410043136 74 9 1.0 3.0 0.00 0.00 0.00 72 1010.2
20200410042622 74 9 1.0 3.0 0.00 0.00 0.00 72 1010.2
20200410042127 74 360 1.0 2.0 0.00 0.00 0.00 74 1010.2
20200410041613 74 350 0.0 2.0 0.00 0.00 0.00 74 1010.3
20200410041120 74 350 0.0 2.0 0.00 0.00 0.00 74 1010.5
20200410040632 74 355 0.0 2.0 0.00 0.00 0.00 74 1010.6
20200410040131 74 355 0.0 2.0 0.00 0.00 0.00 75 1010.5
20200410035626 74 355 0.0 0.0 0.00 0.00 0.00 76 1010.6
20200410035111 74 355 0.0 0.0 0.00 0.00 0.00 76 1010.6
20200410034623 74 355 0.0 0.0 0.00 0.00 0.00 75 1010.8
20200410034109 74 355 0.0 0.0 0.00 0.00 0.00 76 1010.8
20200410033615 74 355 0.0 0.0 0.00 0.00 0.00 76 1010.9
20200410033121 74 355 0.0 0.0 0.00 0.00 0.00 75 1010.7
20200410032611 74 355 0.0 0.0 0.00 0.00 0.00 75 1010.7
20200410032123 74 355 0.0 0.0 0.00 0.00 0.00 75 1010.6
20200410031610 74 355 0.0 0.0 0.00 0.00 0.00 75 1010.5
20200410031115 75 355 0.0 0.0 0.00 0.00 0.00 74 1010.5
20200410030629 75 355 0.0 0.0 0.00 0.00 0.00 73 1010.2
20200410030207 75 348 0.0 0.0 0.00 0.00 0.00 72 1010.2
20200410025618 76 348 0.0 0.0 0.00 0.00 0.00 71 1010.2
20200410025122 76 348 0.0 2.0 0.00 0.00 0.00 70 1010.1
20200410024617 76 348 0.0 3.0 0.00 0.00 0.00 70 1010.0
20200410024122 76 335 0.0 3.0 0.00 0.00 0.00 70 1009.9
20200410023627 76 342 0.0 1.0 0.00 0.00 0.00 70 1009.8
20200410023112 76 343 0.0 1.0 0.00 0.00 0.00 70 1009.7
20200410022623 76 343 0.0 1.0 0.00 0.00 0.00 70 1009.7
20200410022129 76 343 0.0 0.0 0.00 0.00 0.00 71 1009.5
20200410021615 75 343 0.0 0.0 0.00 0.00 0.00 72 1009.5
20200410021127 76 343 0.0 0.0 0.00 0.00 0.00 72 1009.2
20200410020631 76 343 0.0 0.0 0.00 0.00 0.00 70 1009.1
20200410020128 76 343 0.0 0.0 0.00 0.00 0.00 71 1008.9
20200410015624 76 343 0.0 0.0 0.00 0.00 0.00 71 1008.7
20200410015110 76 343 0.0 0.0 0.00 0.00 0.00 70 1008.8
20200410014623 76 343 0.0 0.0 0.00 0.00 0.00 69 1008.7
20200410014127 76 343 0.0 0.0 0.00 0.00 0.00 68 1008.7
20200410013612 77 343 0.0 0.0 0.00 0.00 0.00 68 1008.6
20200410013116 77 343 0.0 0.0 0.00 0.00 0.00 67 1008.6
20200410012627 77 343 0.0 0.0 0.00 0.00 0.00 66 1008.5
20200410012113 77 343 0.0 0.0 0.00 0.00 0.00 66 1008.5
20200410011618 77 343 0.0 0.0 0.00 0.00 0.00 65 1008.5
20200410011124 78 343 0.0 0.0 0.00 0.00 0.00 65 1008.5
20200410010609 78 343 0.0 0.0 0.00 0.00 0.00 65 1008.4
20200410010127 78 343 0.0 0.0 0.00 0.00 0.00 64 1008.3
20200410005622 79 343 0.0 0.0 0.00 0.11 0.00 63 1008.4
20200410005133 79 343 0.0 0.0 0.00 0.11 0.00 62 1008.3
20200410004620 79 343 0.0 0.0 0.00 0.11 0.00 61 1008.3
20200410004127 79 343 0.0 0.0 0.00 0.11 0.00 60 1008.3
20200410003614 80 343 0.0 0.0 0.00 0.11 0.00 60 1008.3
20200410003128 80 343 0.0 0.0 0.00 0.11 0.00 59 1008.3
20200410002616 81 343 0.0 0.0 0.00 0.11 0.00 58 1008.2
20200410002122 81 343 0.0 1.0 0.00 0.11 0.00 56 1008.3
20200410001609 81 343 0.0 1.0 0.00 0.11 0.00 55 1008.4
20200410001116 82 342 0.0 1.0 0.00 0.11 0.00 55 1008.5
20200410000628 82 342 0.0 2.0 0.00 0.11 0.00 55 1008.6
20200410000127 82 342 0.0 2.0 0.00 0.11 0.00 54 1008.6
20200409235622 82 342 0.0 2.0 0.00 0.11 0.00 54 1008.5
20200409235109 82 342 1.0 4.0 0.00 0.11 0.00 54 1008.6
20200409234622 83 335 0.0 4.0 0.00 0.11 0.00 54 1008.6
20200409234128 83 355 0.0 3.0 0.00 0.11 0.00 54 1008.6
20200409233614 83 355 1.0 3.0 0.00 0.11 0.00 53 1008.5
20200409233121 83 347 1.0 4.0 0.00 0.11 0.00 53 1008.5
20200409232634 84 340 1.0 5.0 0.00 0.11 0.00 52 1008.5
20200409232120 84 314 2.0 8.0 0.00 0.11 0.00 53 1008.5
20200409231626 84 344 3.0 8.0 0.00 0.11 0.00 52 1008.5
20200409231111 84 336 2.0 5.0 0.00 0.11 0.00 51 1008.5
20200409230618 85 297 2.0 6.0 0.00 0.11 0.00 52 1008.6
20200409230136 85 329 3.0 6.0 0.00 0.11 0.00 52 1008.5
20200409225610 85 294 1.0 5.0 0.00 0.40 0.00 51 1008.6
20200409225117 85 351 0.0 5.0 0.00 0.40 0.00 51 1008.5
20200409224630 85 321 2.0 5.0 0.00 0.40 0.00 50 1008.6
20200409224116 85 308 1.0 5.0 0.00 0.40 0.00 51 1008.5
20200409223622 85 301 1.0 5.0 0.00 0.40 0.00 50 1008.6
20200409223109 85 321 2.0 5.0 0.00 0.40 0.00 50 1008.6
20200409222616 86 329 1.0 5.0 0.00 0.40 0.00 48 1008.5
20200409222127 86 355 2.0 4.0 0.00 0.40 0.00 49 1008.6
20200409221613 86 349 1.0 8.0 0.00 0.40 0.00 49 1008.6
20200409221117 86 345 2.0 8.0 0.00 0.40 0.00 49 1008.5
20200409220630 86 320 2.0 6.0 0.00 0.40 0.00 48 1008.5
20200409220129 85 335 2.0 6.0 0.00 0.40 0.00 48 1008.6
20200409215622 86 323 2.0 5.0 0.00 0.40 0.00 48 1008.7
20200409215127 86 259 2.0 6.0 0.00 0.40 0.00 47 1008.5
20200409214613 86 321 1.0 6.0 0.00 0.40 0.00 49 1008.6
20200409214124 86 329 2.0 8.0 0.00 0.40 0.00 47 1008.5
20200409213613 86 272 2.0 8.0 0.00 0.40 0.00 48 1008.5
20200409213109 86 331 3.0 9.0 0.00 0.40 0.00 47 1008.6
20200409212622 86 262 3.0 9.0 0.00 0.40 0.00 46 1008.5
20200409212125 86 326 3.0 8.0 0.00 0.40 0.00 48 1008.4
20200409211612 87 317 2.0 8.0 0.00 0.40 0.00 48 1008.6
20200409211118 87 337 3.0 8.0 0.00 0.40 0.00 47 1008.5
20200409210630 87 336 2.0 8.0 0.00 0.40 0.00 48 1008.5
20200409210125 86 69 2.0 5.0 0.00 0.40 0.00 48 1008.7
20200409205620 86 313 2.0 8.0 0.00 0.40 0.00 47 1008.6
20200409205129 86 300 3.0 10.0 0.00 0.40 0.00 47 1008.6
20200409204614 87 317 2.0 6.0 0.00 0.40 0.00 47 1008.8
20200409204121 87 347 2.0 6.0 0.00 0.40 0.00 47 1008.8
20200409203627 87 17 2.0 5.0 0.00 0.40 0.00 47 1008.8
20200409203112 87 281 1.0 4.0 0.00 0.40 0.00 48 1008.6
20200409202717 87 270 2.0 4.0 0.00 0.40 0.00 47 1008.7
20200409202118 88 328 2.0 9.0 0.00 0.40 0.00 47 1008.8
20200409201612 87 327 1.0 9.0 0.00 0.40 0.00 47 1008.8
20200409201121 87 281 2.0 10.0 0.00 0.40 0.00 46 1008.9
20200409200624 87 296 2.0 10.0 0.00 0.40 0.00 46 1009.1
20200409200121 87 286 3.0 9.0 0.00 0.40 0.00 44 1009.0
20200409195622 88 308 3.0 6.0 0.00 0.40 0.00 46 1009.2
20200409195129 89 332 2.0 4.0 0.00 0.40 0.00 45 1009.2
20200409194614 88 141 1.0 6.0 0.00 0.40 0.00 47 1009.2
20200409194120 88 324 1.0 10.0 0.00 0.40 0.00 49 1009.4
20200409193633 87 323 2.0 10.0 0.00 0.40 0.00 48 1009.3
20200409193118 87 355 2.0 5.0 0.00 0.40 0.00 48 1009.2
20200409192625 88 349 2.0 5.0 0.00 0.40 0.00 46 1009.4
20200409192109 88 174 2.0 4.0 0.00 0.40 0.00 48 1009.5
20200409191615 88 300 1.0 4.0 0.00 0.40 0.00 47 1009.6
20200409191126 88 273 2.0 4.0 0.00 0.40 0.00 48 1009.7
20200409190613 87 328 1.0 6.0 0.00 0.40 0.00 48 1009.8
20200409190130 87 284 2.0 9.0 0.00 0.40 0.00 49 1010.0
20200409185631 87 343 3.0 9.0 0.00 0.40 0.00 49 1010.2
20200409185117 88 276 3.0 9.0 0.00 0.40 0.00 47 1010.2
20200409184646 88 346 1.0 9.0 0.00 0.40 0.00 49 1010.1
20200409184127 87 355 3.0 8.0 0.00 0.40 0.00 48 1010.1
20200409183614 87 300 2.0 10.0 0.00 0.40 0.00 48 1010.1
20200409183126 87 338 5.0 10.0 0.00 0.40 0.00 48 1010.1
20200409182613 87 355 2.0 8.0 0.00 0.40 0.00 49 1010.1
20200409182117 88 335 3.0 6.0 0.00 0.40 0.00 47 1010.3
20200409181630 87 325 2.0 4.0 0.00 0.40 0.00 49 1010.3
20200409181124 86 17 2.0 5.0 0.00 0.40 0.00 48 1010.3
20200409180610 87 331 2.0 5.0 0.00 0.40 0.00 50 1010.5
20200409180127 87 269 2.0 6.0 0.00 0.40 0.00 49 1010.5
20200409175628 87 265 1.0 5.0 0.00 0.40 0.00 49 1010.5
20200409175114 87 279 2.0 5.0 0.00 0.40 0.00 50 1010.5
20200409174619 86 335 1.0 4.0 0.00 0.40 0.00 51 1010.4
20200409174109 86 229 1.0 4.0 0.00 0.40 0.00 51 1010.3
20200409173619 86 5 1.0 5.0 0.00 0.40 0.00 50 1010.5
20200409173127 85 24 1.0 5.0 0.00 0.40 0.00 51 1010.5
20200409172612 85 269 2.0 6.0 0.00 0.40 0.00 51 1010.7
20200409172113 85 334 2.0 6.0 0.00 0.40 0.00 55 1010.6
20200409171626 85 240 1.0 3.0 0.00 0.40 0.00 56 1010.8
20200409171112 84 277 1.0 6.0 0.00 0.40 0.00 57 1010.7
20200409170617 84 240 2.0 6.0 0.00 0.40 0.00 59 1010.6
20200409170141 84 36 1.0 5.0 0.00 0.40 0.00 56 1010.9
20200409165615 84 315 3.0 4.0 0.00 0.40 0.00 59 1011.0
20200409165119 84 38 1.0 3.0 0.00 0.40 0.00 60 1011.3
20200409164622 83 340 1.0 3.0 0.00 0.40 0.00 60 1011.3
20200409164131 83 302 1.0 5.0 0.00 0.40 0.00 59 1011.3
20200409163618 83 316 1.0 5.0 0.00 0.40 0.00 59 1011.2
20200409163121 83 46 1.0 4.0 0.00 0.40 0.00 61 1011.2
20200409162627 83 17 2.0 4.0 0.00 0.40 0.00 62 1011.2
20200409162121 82 327 2.0 3.0 0.00 0.40 0.00 61 1011.1
20200409161627 83 279 1.0 2.0 0.00 0.40 0.00 66 1011.2
20200409161128 82 59 1.0 4.0 0.00 0.40 0.00 68 1011.3
20200409160614 82 339 2.0 4.0 0.00 0.40 0.00 67 1011.3
20200409160137 82 5 0.0 3.0 0.00 0.40 0.00 65 1011.4
20200409155612 81 269 1.0 3.0 0.00 0.40 0.00 65 1011.4
20200409155117 81 38 1.0 3.0 0.00 0.40 0.00 66 1011.4
20200409154630 81 326 2.0 3.0 0.00 0.40 0.00 67 1011.5
20200409154116 80 241 1.0 5.0 0.00 0.40 0.00 70 1011.7
20200409153628 80 290 2.0 5.0 0.00 0.40 0.00 69 1011.7
20200409153127 80 332 1.0 5.0 0.00 0.40 0.00 70 1012.0
20200409152614 80 348 1.0 6.0 0.00 0.40 0.00 71 1012.1
20200409152127 80 277 2.0 8.0 0.00 0.40 0.00 73 1012.1
20200409151614 79 344 2.0 8.0 0.00 0.40 0.00 76 1012.0
20200409151121 79 288 2.0 5.0 0.00 0.40 0.00 77 1012.1
20200409150627 80 327 1.0 8.0 0.00 0.40 0.00 77 1012.3
20200409150128 79 313 3.0 8.0 0.00 0.40 0.00 78 1012.3
20200409145621 78 344 3.0 8.0 0.00 0.40 0.00 79 1012.3
20200409145128 78 292 2.0 10.0 0.00 0.40 0.00 79 1012.4
20200409144615 78 302 3.0 13.0 0.00 0.40 0.00 79 1012.4
20200409144127 78 275 3.0 13.0 0.00 0.40 0.00 79 1012.3
20200409143650 78 327 4.0 13.0 0.00 0.40 0.00 80 1012.2
20200409143123 78 347 2.0 8.0 0.00 0.40 0.00 82 1012.1
20200409142628 78 274 1.0 6.0 0.00 0.40 0.00 81 1011.8
20200409142120 78 274 2.0 4.0 0.00 0.40 0.00 83 1011.8
20200409141624 78 38 1.0 3.0 0.00 0.40 0.00 83 1011.8
20200409141131 77 327 1.0 5.0 0.00 0.40 0.00 85 1011.9
20200409140614 77 338 3.0 6.0 0.00 0.40 0.00 84 1012.0
20200409140134 77 341 2.0 6.0 0.00 0.40 0.00 85 1011.9
20200409135628 76 338 2.0 8.0 0.00 0.40 0.00 85 1011.7
20200409135112 76 288 1.0 6.0 0.00 0.40 0.00 86 1011.8
20200409134624 76 326 2.0 9.0 0.00 0.40 0.00 86 1011.8
20200409134128 76 328 3.0 9.0 0.00 0.40 0.00 86 1011.8
20200409133615 76 355 2.0 4.0 0.00 0.40 0.00 87 1011.8
20200409133122 76 341 1.0 4.0 0.00 0.40 0.00 88 1011.7
20200409132634 75 327 2.0 4.0 0.00 0.40 0.00 89 1011.8
20200409132118 75 322 1.0 5.0 0.00 0.40 0.00 89 1011.7
20200409131626 75 344 1.0 5.0 0.00 0.40 0.00 90 1011.8
20200409131110 75 27 0.0 2.0 0.00 0.40 0.00 90 1011.7
20200409130616 75 59 0.0 2.0 0.00 0.40 0.00 91 1011.7
20200409130139 74 70 0.0 0.0 0.00 0.40 0.00 91 1011.6
20200409125611 74 71 0.0 0.0 0.00 0.40 0.00 92 1011.6
20200409125119 74 71 0.0 1.0 0.00 0.40 0.00 92 1011.4
20200409124629 74 71 0.0 1.0 0.00 0.40 0.00 92 1011.4
20200409124114 74 71 0.0 1.0 0.00 0.40 0.00 93 1011.5
20200409123621 74 9 0.0 1.0 0.00 0.40 0.00 93 1011.4
20200409123127 74 9 0.0 2.0 0.00 0.40 0.00 93 1011.7
20200409122613 73 9 0.0 2.0 0.00 0.40 0.00 92 1011.8
20200409122126 74 360 0.0 0.0 0.00 0.40 0.00 92 1011.6
20200409121613 74 360 0.0 2.0 0.00 0.40 0.00 92 1011.6
20200409121118 74 360 0.0 2.0 0.00 0.40 0.00 92 1011.5
20200409120620 74 5 0.0 1.0 0.00 0.40 0.00 93 1011.4
20200409120124 73 5 0.0 2.0 0.00 0.40 0.00 92 1011.4
20200409115618 74 5 0.0 3.0 0.00 0.40 0.00 92 1011.3
20200409115126 73 360 0.0 3.0 0.00 0.40 0.00 92 1011.4
20200409114613 73 355 0.0 2.0 0.00 0.40 0.00 92 1011.3
20200409114121 73 355 0.0 1.0 0.00 0.40 0.00 92 1011.1
20200409113612 73 355 0.0 1.0 0.00 0.40 0.00 92 1010.9
20200409113119 74 355 0.0 1.0 0.00 0.40 0.00 92 1010.8
20200409112632 74 355 0.0 1.0 0.00 0.40 0.00 92 1010.7
20200409112114 74 355 0.0 2.0 0.00 0.40 0.00 92 1010.6
20200409111620 73 355 0.0 2.0 0.00 0.40 0.00 92 1010.5
20200409111126 73 355 0.0 3.0 0.00 0.40 0.00 92 1011.1
20200409110613 74 351 0.0 3.0 0.00 0.40 0.00 92 1010.4
20200409110137 73 347 1.0 2.0 0.00 0.40 0.00 92 1010.2
20200409105612 74 24 1.0 2.0 0.00 0.40 0.00 92 1010.2
20200409105119 74 272 0.0 2.0 0.00 0.40 0.00 92 1010.1
20200409104632 73 261 0.0 2.0 0.00 0.40 0.00 92 1010.0
20200409104115 74 248 0.0 2.0 0.00 0.40 0.00 92 1010.1
20200409103621 74 344 0.0 2.0 0.00 0.40 0.00 92 1010.0
20200409103128 73 333 0.0 3.0 0.00 0.40 0.00 92 1009.8
20200409102616 73 332 1.0 3.0 0.00 0.40 0.00 92 1009.7
20200409102127 74 339 0.0 3.0 0.00 0.40 0.00 92 1009.6
20200409101614 74 294 0.0 2.0 0.00 0.40 0.00 92 1009.6
20200409101120 74 285 0.0 1.0 0.00 0.40 0.00 92 1009.7
20200409100627 74 285 0.0 2.0 0.00 0.40 0.00 92 1009.6
20200409100131 74 285 0.0 2.0 0.00 0.40 0.00 92 1009.6